sensor_id;sensor_type;location;lat;lon;timestamp;P1;durP1;ratioP1;P2;durP2;ratioP2
43580;SDS011;29175;51.030;4.606;2022-07-03T00:01:24;6.32;;;3.17;;
43580;SDS011;29175;51.030;4.606;2022-07-03T00:03:50;4.93;;;2.83;;
43580;SDS011;29175;51.030;4.606;2022-07-03T00:06:17;6.53;;;2.90;;
43580;SDS011;29175;51.030;4.606;2022-07-03T00:08:43;9.63;;;3.63;;
43580;SDS011;29175;51.030;4.606;2022-07-03T00:11:09;7.38;;;3.45;;
43580;SDS011;29175;51.030;4.606;2022-07-03T00:13:39;8.35;;;3.33;;
43580;SDS011;29175;51.030;4.606;2022-07-03T00:16:07;5.00;;;2.92;;
43580;SDS011;29175;51.030;4.606;2022-07-03T00:18:34;8.32;;;3.10;;
43580;SDS011;29175;51.030;4.606;2022-07-03T00:21:01;4.05;;;2.70;;
43580;SDS011;29175;51.030;4.606;2022-07-03T00:23:54;6.57;;;2.92;;
43580;SDS011;29175;51.030;4.606;2022-07-03T00:26:21;6.63;;;2.53;;
43580;SDS011;29175;51.030;4.606;2022-07-03T00:28:49;5.27;;;3.10;;
43580;SDS011;29175;51.030;4.606;2022-07-03T00:31:17;7.88;;;3.03;;
43580;SDS011;29175;51.030;4.606;2022-07-03T00:33:43;9.63;;;3.40;;
43580;SDS011;29175;51.030;4.606;2022-07-03T00:36:12;6.30;;;2.75;;
43580;SDS011;29175;51.030;4.606;2022-07-03T00:38:42;9.77;;;2.95;;
43580;SDS011;29175;51.030;4.606;2022-07-03T00:41:23;8.40;;;2.92;;
43580;SDS011;29175;51.030;4.606;2022-07-03T00:43:54;7.65;;;3.10;;
43580;SDS011;29175;51.030;4.606;2022-07-03T00:46:23;8.38;;;3.40;;
43580;SDS011;29175;51.030;4.606;2022-07-03T00:48:52;9.25;;;2.90;;
43580;SDS011;29175;51.030;4.606;2022-07-03T00:51:24;9.63;;;3.08;;
43580;SDS011;29175;51.030;4.606;2022-07-03T00:53:57;8.77;;;3.05;;
43580;SDS011;29175;51.030;4.606;2022-07-03T00:56:29;7.57;;;3.55;;
43580;SDS011;29175;51.030;4.606;2022-07-03T00:58:56;7.32;;;2.83;;
43580;SDS011;29175;51.030;4.606;2022-07-03T01:01:26;7.13;;;3.03;;
43580;SDS011;29175;51.030;4.606;2022-07-03T01:06:39;7.03;;;2.80;;
43580;SDS011;29175;51.030;4.606;2022-07-03T01:09:14;8.40;;;2.97;;
43580;SDS011;29175;51.030;4.606;2022-07-03T01:11:47;6.97;;;2.78;;
43580;SDS011;29175;51.030;4.606;2022-07-03T01:17:25;10.27;;;3.05;;
43580;SDS011;29175;51.030;4.606;2022-07-03T01:20:00;6.78;;;2.80;;
43580;SDS011;29175;51.030;4.606;2022-07-03T01:30:42;5.40;;;2.30;;
43580;SDS011;29175;51.030;4.606;2022-07-03T01:38:24;5.95;;;3.03;;
43580;SDS011;29175;51.030;4.606;2022-07-03T01:40:57;5.07;;;2.28;;
43580;SDS011;29175;51.030;4.606;2022-07-03T01:43:28;4.05;;;2.42;;
43580;SDS011;29175;51.030;4.606;2022-07-03T01:45:58;6.60;;;2.95;;
43580;SDS011;29175;51.030;4.606;2022-07-03T01:48:28;2.92;;;2.10;;
43580;SDS011;29175;51.030;4.606;2022-07-03T01:50:56;3.60;;;2.22;;
43580;SDS011;29175;51.030;4.606;2022-07-03T01:53:27;6.68;;;3.00;;
43580;SDS011;29175;51.030;4.606;2022-07-03T01:55:58;3.97;;;2.80;;
43580;SDS011;29175;51.030;4.606;2022-07-03T01:58:28;4.63;;;2.38;;
43580;SDS011;29175;51.030;4.606;2022-07-03T02:01:00;5.30;;;2.58;;
43580;SDS011;29175;51.030;4.606;2022-07-03T02:03:59;4.80;;;2.45;;
43580;SDS011;29175;51.030;4.606;2022-07-03T02:10:16;4.57;;;2.50;;
43580;SDS011;29175;51.030;4.606;2022-07-03T02:12:39;4.45;;;2.30;;
43580;SDS011;29175;51.030;4.606;2022-07-03T02:15:14;8.07;;;2.57;;
43580;SDS011;29175;51.030;4.606;2022-07-03T02:17:49;5.47;;;2.65;;
43580;SDS011;29175;51.030;4.606;2022-07-03T02:20:18;6.18;;;2.75;;
43580;SDS011;29175;51.030;4.606;2022-07-03T02:22:47;5.50;;;2.70;;
43580;SDS011;29175;51.030;4.606;2022-07-03T02:25:24;4.53;;;2.47;;
43580;SDS011;29175;51.030;4.606;2022-07-03T02:28:03;5.53;;;2.35;;
43580;SDS011;29175;51.030;4.606;2022-07-03T02:30:48;5.32;;;3.00;;
43580;SDS011;29175;51.030;4.606;2022-07-03T02:35:53;6.78;;;2.42;;
43580;SDS011;29175;51.030;4.606;2022-07-03T02:38:21;5.13;;;2.60;;
43580;SDS011;29175;51.030;4.606;2022-07-03T02:49:27;5.85;;;2.92;;
43580;SDS011;29175;51.030;4.606;2022-07-03T02:57:40;3.80;;;2.53;;
43580;SDS011;29175;51.030;4.606;2022-07-03T03:00:08;5.85;;;2.65;;
43580;SDS011;29175;51.030;4.606;2022-07-03T03:05:21;5.97;;;2.60;;
43580;SDS011;29175;51.030;4.606;2022-07-03T03:10:39;7.25;;;2.55;;
43580;SDS011;29175;51.030;4.606;2022-07-03T03:13:11;6.53;;;3.13;;
43580;SDS011;29175;51.030;4.606;2022-07-03T03:15:41;5.95;;;2.50;;
43580;SDS011;29175;51.030;4.606;2022-07-03T03:18:20;4.47;;;2.58;;
43580;SDS011;29175;51.030;4.606;2022-07-03T03:20:48;5.82;;;2.42;;
43580;SDS011;29175;51.030;4.606;2022-07-03T03:23:24;4.18;;;2.30;;
43580;SDS011;29175;51.030;4.606;2022-07-03T03:26:02;5.55;;;2.70;;
43580;SDS011;29175;51.030;4.606;2022-07-03T03:28:29;4.70;;;2.30;;
43580;SDS011;29175;51.030;4.606;2022-07-03T03:30:57;4.90;;;2.33;;
43580;SDS011;29175;51.030;4.606;2022-07-03T03:33:24;4.22;;;1.92;;
43580;SDS011;29175;51.030;4.606;2022-07-03T03:35:52;4.03;;;2.38;;
43580;SDS011;29175;51.030;4.606;2022-07-03T03:40:46;6.53;;;2.08;;
43580;SDS011;29175;51.030;4.606;2022-07-03T03:43:13;4.65;;;2.20;;
43580;SDS011;29175;51.030;4.606;2022-07-03T03:45:41;5.28;;;2.30;;
43580;SDS011;29175;51.030;4.606;2022-07-03T03:48:10;5.97;;;2.30;;
43580;SDS011;29175;51.030;4.606;2022-07-03T03:50:36;5.90;;;2.03;;
43580;SDS011;29175;51.030;4.606;2022-07-03T03:53:03;4.68;;;2.00;;
43580;SDS011;29175;51.030;4.606;2022-07-03T03:55:30;2.30;;;1.55;;
43580;SDS011;29175;51.030;4.606;2022-07-03T03:57:57;4.18;;;2.15;;
43580;SDS011;29175;51.030;4.606;2022-07-03T04:00:23;5.72;;;1.80;;
43580;SDS011;29175;51.030;4.606;2022-07-03T04:02:48;3.47;;;1.90;;
43580;SDS011;29175;51.030;4.606;2022-07-03T04:05:14;3.70;;;2.00;;
43580;SDS011;29175;51.030;4.606;2022-07-03T04:07:40;3.00;;;1.77;;
43580;SDS011;29175;51.030;4.606;2022-07-03T04:10:08;6.38;;;1.70;;
43580;SDS011;29175;51.030;4.606;2022-07-03T04:12:34;5.18;;;2.08;;
43580;SDS011;29175;51.030;4.606;2022-07-03T04:15:02;9.40;;;1.90;;
43580;SDS011;29175;51.030;4.606;2022-07-03T04:17:29;5.15;;;1.67;;
43580;SDS011;29175;51.030;4.606;2022-07-03T04:19:56;3.70;;;1.58;;
43580;SDS011;29175;51.030;4.606;2022-07-03T04:22:23;2.65;;;1.50;;
43580;SDS011;29175;51.030;4.606;2022-07-03T04:24:49;8.70;;;1.80;;
43580;SDS011;29175;51.030;4.606;2022-07-03T04:27:15;4.82;;;1.90;;
43580;SDS011;29175;51.030;4.606;2022-07-03T04:29:43;3.75;;;1.42;;
43580;SDS011;29175;51.030;4.606;2022-07-03T04:32:10;3.05;;;1.48;;
43580;SDS011;29175;51.030;4.606;2022-07-03T04:34:36;2.83;;;1.70;;
43580;SDS011;29175;51.030;4.606;2022-07-03T04:37:02;3.17;;;1.38;;
43580;SDS011;29175;51.030;4.606;2022-07-03T04:39:28;5.35;;;1.70;;
43580;SDS011;29175;51.030;4.606;2022-07-03T04:41:53;5.10;;;1.83;;
43580;SDS011;29175;51.030;4.606;2022-07-03T04:44:22;2.65;;;1.65;;
43580;SDS011;29175;51.030;4.606;2022-07-03T04:46:50;4.03;;;1.48;;
43580;SDS011;29175;51.030;4.606;2022-07-03T04:49:16;4.57;;;1.75;;
43580;SDS011;29175;51.030;4.606;2022-07-03T04:51:42;4.20;;;1.70;;
43580;SDS011;29175;51.030;4.606;2022-07-03T04:54:08;4.20;;;1.40;;
43580;SDS011;29175;51.030;4.606;2022-07-03T04:56:35;3.25;;;1.27;;
43580;SDS011;29175;51.030;4.606;2022-07-03T04:59:06;3.40;;;1.60;;
43580;SDS011;29175;51.030;4.606;2022-07-03T05:01:33;3.63;;;1.58;;
43580;SDS011;29175;51.030;4.606;2022-07-03T05:04:00;3.58;;;1.60;;
43580;SDS011;29175;51.030;4.606;2022-07-03T05:06:26;2.38;;;1.42;;
43580;SDS011;29175;51.030;4.606;2022-07-03T05:08:51;4.05;;;1.35;;
43580;SDS011;29175;51.030;4.606;2022-07-03T05:11:18;3.95;;;1.40;;
43580;SDS011;29175;51.030;4.606;2022-07-03T05:13:45;2.45;;;1.25;;
43580;SDS011;29175;51.030;4.606;2022-07-03T05:16:13;3.47;;;1.45;;
43580;SDS011;29175;51.030;4.606;2022-07-03T05:18:39;6.35;;;1.52;;
43580;SDS011;29175;51.030;4.606;2022-07-03T05:21:05;3.25;;;1.30;;
43580;SDS011;29175;51.030;4.606;2022-07-03T05:23:31;2.42;;;1.40;;
43580;SDS011;29175;51.030;4.606;2022-07-03T05:25:59;5.57;;;1.60;;
43580;SDS011;29175;51.030;4.606;2022-07-03T05:28:25;6.80;;;1.75;;
43580;SDS011;29175;51.030;4.606;2022-07-03T05:30:53;4.05;;;1.63;;
43580;SDS011;29175;51.030;4.606;2022-07-03T05:33:22;4.60;;;1.40;;
43580;SDS011;29175;51.030;4.606;2022-07-03T05:35:50;5.53;;;1.50;;
43580;SDS011;29175;51.030;4.606;2022-07-03T05:38:17;3.50;;;1.40;;
43580;SDS011;29175;51.030;4.606;2022-07-03T05:41:05;6.43;;;1.75;;
43580;SDS011;29175;51.030;4.606;2022-07-03T05:43:31;4.22;;;1.65;;
43580;SDS011;29175;51.030;4.606;2022-07-03T05:45:58;5.28;;;1.95;;
43580;SDS011;29175;51.030;4.606;2022-07-03T05:48:27;5.25;;;1.90;;
43580;SDS011;29175;51.030;4.606;2022-07-03T05:50:53;4.45;;;1.80;;
43580;SDS011;29175;51.030;4.606;2022-07-03T05:53:20;4.80;;;2.25;;
43580;SDS011;29175;51.030;4.606;2022-07-03T05:55:47;7.60;;;2.13;;
43580;SDS011;29175;51.030;4.606;2022-07-03T05:58:15;8.20;;;2.47;;
43580;SDS011;29175;51.030;4.606;2022-07-03T06:00:43;8.98;;;2.35;;
43580;SDS011;29175;51.030;4.606;2022-07-03T06:03:10;9.50;;;2.60;;
43580;SDS011;29175;51.030;4.606;2022-07-03T06:05:37;8.52;;;2.90;;
43580;SDS011;29175;51.030;4.606;2022-07-03T06:08:03;10.93;;;2.63;;
43580;SDS011;29175;51.030;4.606;2022-07-03T06:10:32;7.10;;;2.08;;
43580;SDS011;29175;51.030;4.606;2022-07-03T06:12:59;3.38;;;2.10;;
43580;SDS011;29175;51.030;4.606;2022-07-03T06:15:27;5.13;;;2.75;;
43580;SDS011;29175;51.030;4.606;2022-07-03T06:17:54;5.22;;;2.30;;
43580;SDS011;29175;51.030;4.606;2022-07-03T06:20:21;6.22;;;2.55;;
43580;SDS011;29175;51.030;4.606;2022-07-03T06:22:48;5.95;;;3.00;;
43580;SDS011;29175;51.030;4.606;2022-07-03T06:25:14;6.93;;;2.33;;
43580;SDS011;29175;51.030;4.606;2022-07-03T06:27:43;8.77;;;2.58;;
43580;SDS011;29175;51.030;4.606;2022-07-03T06:30:09;3.58;;;2.08;;
43580;SDS011;29175;51.030;4.606;2022-07-03T06:32:37;5.65;;;2.35;;
43580;SDS011;29175;51.030;4.606;2022-07-03T06:35:03;5.18;;;2.20;;
43580;SDS011;29175;51.030;4.606;2022-07-03T06:37:30;14.82;;;4.82;;
43580;SDS011;29175;51.030;4.606;2022-07-03T06:39:57;12.57;;;3.10;;
43580;SDS011;29175;51.030;4.606;2022-07-03T06:42:24;6.60;;;2.42;;
43580;SDS011;29175;51.030;4.606;2022-07-03T06:44:49;7.93;;;1.60;;
43580;SDS011;29175;51.030;4.606;2022-07-03T06:47:15;4.15;;;1.73;;
43580;SDS011;29175;51.030;4.606;2022-07-03T06:49:41;5.80;;;2.13;;
43580;SDS011;29175;51.030;4.606;2022-07-03T06:52:08;3.42;;;1.60;;
43580;SDS011;29175;51.030;4.606;2022-07-03T06:54:34;6.22;;;1.65;;
43580;SDS011;29175;51.030;4.606;2022-07-03T06:57:03;7.30;;;1.75;;
43580;SDS011;29175;51.030;4.606;2022-07-03T06:59:29;5.93;;;1.67;;
43580;SDS011;29175;51.030;4.606;2022-07-03T07:01:54;7.03;;;1.75;;
43580;SDS011;29175;51.030;4.606;2022-07-03T07:04:20;3.20;;;1.50;;
43580;SDS011;29175;51.030;4.606;2022-07-03T07:06:46;4.82;;;1.40;;
43580;SDS011;29175;51.030;4.606;2022-07-03T07:09:11;6.10;;;1.50;;
43580;SDS011;29175;51.030;4.606;2022-07-03T07:11:37;5.50;;;1.50;;
43580;SDS011;29175;51.030;4.606;2022-07-03T07:14:03;2.35;;;1.10;;
43580;SDS011;29175;51.030;4.606;2022-07-03T07:16:28;5.43;;;1.35;;
43580;SDS011;29175;51.030;4.606;2022-07-03T07:18:54;4.32;;;1.40;;
43580;SDS011;29175;51.030;4.606;2022-07-03T07:21:20;2.92;;;1.35;;
43580;SDS011;29175;51.030;4.606;2022-07-03T07:23:45;3.08;;;1.20;;
43580;SDS011;29175;51.030;4.606;2022-07-03T07:26:11;4.13;;;1.10;;
43580;SDS011;29175;51.030;4.606;2022-07-03T07:28:37;2.15;;;1.00;;
43580;SDS011;29175;51.030;4.606;2022-07-03T07:31:02;4.07;;;1.20;;
43580;SDS011;29175;51.030;4.606;2022-07-03T07:33:28;3.25;;;1.45;;
43580;SDS011;29175;51.030;4.606;2022-07-03T07:35:54;5.78;;;1.55;;
43580;SDS011;29175;51.030;4.606;2022-07-03T07:38:19;3.22;;;1.30;;
43580;SDS011;29175;51.030;4.606;2022-07-03T07:40:46;4.45;;;1.40;;
43580;SDS011;29175;51.030;4.606;2022-07-03T07:43:11;4.18;;;1.63;;
43580;SDS011;29175;51.030;4.606;2022-07-03T07:45:37;4.13;;;1.42;;
43580;SDS011;29175;51.030;4.606;2022-07-03T07:48:03;3.83;;;1.27;;
43580;SDS011;29175;51.030;4.606;2022-07-03T07:50:29;5.15;;;1.27;;
43580;SDS011;29175;51.030;4.606;2022-07-03T07:52:55;3.42;;;1.15;;
43580;SDS011;29175;51.030;4.606;2022-07-03T07:55:21;4.22;;;1.10;;
43580;SDS011;29175;51.030;4.606;2022-07-03T07:57:47;8.05;;;1.15;;
43580;SDS011;29175;51.030;4.606;2022-07-03T08:00:14;1.83;;;1.10;;
43580;SDS011;29175;51.030;4.606;2022-07-03T08:02:42;2.70;;;1.35;;
43580;SDS011;29175;51.030;4.606;2022-07-03T08:05:27;3.53;;;1.10;;
43580;SDS011;29175;51.030;4.606;2022-07-03T08:08:06;4.75;;;1.25;;
43580;SDS011;29175;51.030;4.606;2022-07-03T08:10:37;4.35;;;1.00;;
43580;SDS011;29175;51.030;4.606;2022-07-03T08:13:14;4.78;;;1.15;;
43580;SDS011;29175;51.030;4.606;2022-07-03T08:15:42;4.68;;;1.20;;
43580;SDS011;29175;51.030;4.606;2022-07-03T08:18:08;2.58;;;0.93;;
43580;SDS011;29175;51.030;4.606;2022-07-03T08:20:35;4.05;;;1.10;;
43580;SDS011;29175;51.030;4.606;2022-07-03T08:23:01;5.75;;;1.20;;
43580;SDS011;29175;51.030;4.606;2022-07-03T08:25:28;5.13;;;1.45;;
43580;SDS011;29175;51.030;4.606;2022-07-03T08:27:55;5.07;;;1.30;;
43580;SDS011;29175;51.030;4.606;2022-07-03T08:30:21;3.88;;;1.23;;
43580;SDS011;29175;51.030;4.606;2022-07-03T08:32:47;3.50;;;0.90;;
43580;SDS011;29175;51.030;4.606;2022-07-03T08:35:14;4.53;;;0.95;;
43580;SDS011;29175;51.030;4.606;2022-07-03T08:37:40;3.42;;;0.90;;
43580;SDS011;29175;51.030;4.606;2022-07-03T08:40:08;4.38;;;0.77;;
43580;SDS011;29175;51.030;4.606;2022-07-03T08:42:37;3.47;;;0.82;;
43580;SDS011;29175;51.030;4.606;2022-07-03T08:45:06;2.90;;;1.00;;
43580;SDS011;29175;51.030;4.606;2022-07-03T08:47:33;3.05;;;1.00;;
43580;SDS011;29175;51.030;4.606;2022-07-03T08:50:00;1.55;;;0.70;;
43580;SDS011;29175;51.030;4.606;2022-07-03T08:52:27;6.97;;;1.13;;
43580;SDS011;29175;51.030;4.606;2022-07-03T08:54:53;3.63;;;0.80;;
43580;SDS011;29175;51.030;4.606;2022-07-03T08:57:19;3.67;;;0.90;;
43580;SDS011;29175;51.030;4.606;2022-07-03T08:59:46;1.55;;;0.70;;
43580;SDS011;29175;51.030;4.606;2022-07-03T09:02:17;2.72;;;0.68;;
43580;SDS011;29175;51.030;4.606;2022-07-03T09:04:43;3.33;;;1.00;;
43580;SDS011;29175;51.030;4.606;2022-07-03T09:07:10;2.67;;;1.02;;
43580;SDS011;29175;51.030;4.606;2022-07-03T09:09:38;3.50;;;0.90;;
43580;SDS011;29175;51.030;4.606;2022-07-03T09:12:05;4.00;;;1.13;;
43580;SDS011;29175;51.030;4.606;2022-07-03T09:14:31;3.67;;;0.93;;
43580;SDS011;29175;51.030;4.606;2022-07-03T09:16:57;1.60;;;0.80;;
43580;SDS011;29175;51.030;4.606;2022-07-03T09:24:46;1.90;;;0.73;;
43580;SDS011;29175;51.030;4.606;2022-07-03T09:27:16;2.72;;;1.05;;
43580;SDS011;29175;51.030;4.606;2022-07-03T09:29:59;3.78;;;1.13;;
43580;SDS011;29175;51.030;4.606;2022-07-03T09:32:40;1.73;;;0.55;;
43580;SDS011;29175;51.030;4.606;2022-07-03T09:37:40;2.67;;;0.60;;
43580;SDS011;29175;51.030;4.606;2022-07-03T09:40:12;1.05;;;0.47;;
43580;SDS011;29175;51.030;4.606;2022-07-03T09:42:37;2.15;;;0.90;;
43580;SDS011;29175;51.030;4.606;2022-07-03T09:45:03;2.67;;;0.60;;
43580;SDS011;29175;51.030;4.606;2022-07-03T09:47:29;2.33;;;0.90;;
43580;SDS011;29175;51.030;4.606;2022-07-03T09:49:58;1.17;;;0.65;;
43580;SDS011;29175;51.030;4.606;2022-07-03T09:54:58;1.13;;;0.70;;
43580;SDS011;29175;51.030;4.606;2022-07-03T09:57:29;2.42;;;0.90;;
43580;SDS011;29175;51.030;4.606;2022-07-03T10:00:08;5.50;;;1.15;;
43580;SDS011;29175;51.030;4.606;2022-07-03T10:02:35;7.18;;;1.25;;
43580;SDS011;29175;51.030;4.606;2022-07-03T10:05:13;2.45;;;0.80;;
43580;SDS011;29175;51.030;4.606;2022-07-03T10:07:49;2.75;;;0.75;;
43580;SDS011;29175;51.030;4.606;2022-07-03T10:10:30;5.20;;;1.10;;
43580;SDS011;29175;51.030;4.606;2022-07-03T10:12:58;2.60;;;0.95;;
43580;SDS011;29175;51.030;4.606;2022-07-03T10:15:25;3.75;;;1.13;;
43580;SDS011;29175;51.030;4.606;2022-07-03T10:17:54;2.92;;;0.70;;
43580;SDS011;29175;51.030;4.606;2022-07-03T10:22:58;4.15;;;0.90;;
43580;SDS011;29175;51.030;4.606;2022-07-03T10:25:25;2.13;;;0.90;;
43580;SDS011;29175;51.030;4.606;2022-07-03T10:27:52;2.80;;;0.70;;
43580;SDS011;29175;51.030;4.606;2022-07-03T10:30:19;2.95;;;1.00;;
43580;SDS011;29175;51.030;4.606;2022-07-03T10:32:49;4.50;;;0.85;;
43580;SDS011;29175;51.030;4.606;2022-07-03T10:35:33;2.40;;;0.82;;
43580;SDS011;29175;51.030;4.606;2022-07-03T10:40:31;1.20;;;0.70;;
43580;SDS011;29175;51.030;4.606;2022-07-03T10:43:29;2.78;;;0.70;;
43580;SDS011;29175;51.030;4.606;2022-07-03T10:46:18;0.70;;;0.57;;
43580;SDS011;29175;51.030;4.606;2022-07-03T10:48:57;2.50;;;0.98;;
43580;SDS011;29175;51.030;4.606;2022-07-03T10:51:30;1.95;;;0.60;;
43580;SDS011;29175;51.030;4.606;2022-07-03T10:54:18;5.57;;;1.20;;
43580;SDS011;29175;51.030;4.606;2022-07-03T11:02:21;3.83;;;0.80;;
43580;SDS011;29175;51.030;4.606;2022-07-03T11:15:39;3.67;;;0.70;;
43580;SDS011;29175;51.030;4.606;2022-07-03T11:26:18;3.13;;;0.70;;
43580;SDS011;29175;51.030;4.606;2022-07-03T11:31:15;1.55;;;0.70;;
43580;SDS011;29175;51.030;4.606;2022-07-03T11:33:45;5.30;;;1.00;;
43580;SDS011;29175;51.030;4.606;2022-07-03T11:38:48;1.95;;;0.68;;
43580;SDS011;29175;51.030;4.606;2022-07-03T11:41:20;0.90;;;0.60;;
43580;SDS011;29175;51.030;4.606;2022-07-03T11:43:53;2.17;;;0.57;;
43580;SDS011;29175;51.030;4.606;2022-07-03T11:46:29;0.70;;;0.50;;
43580;SDS011;29175;51.030;4.606;2022-07-03T11:49:11;1.80;;;0.70;;
43580;SDS011;29175;51.030;4.606;2022-07-03T11:51:39;2.90;;;0.60;;
43580;SDS011;29175;51.030;4.606;2022-07-03T11:54:19;3.35;;;0.65;;
43580;SDS011;29175;51.030;4.606;2022-07-03T11:56:44;2.03;;;0.60;;
43580;SDS011;29175;51.030;4.606;2022-07-03T11:59:11;1.50;;;0.55;;
43580;SDS011;29175;51.030;4.606;2022-07-03T12:01:38;4.70;;;0.85;;
43580;SDS011;29175;51.030;4.606;2022-07-03T12:04:05;2.97;;;0.68;;
43580;SDS011;29175;51.030;4.606;2022-07-03T12:06:44;2.22;;;0.63;;
43580;SDS011;29175;51.030;4.606;2022-07-03T12:12:05;4.47;;;0.50;;
43580;SDS011;29175;51.030;4.606;2022-07-03T12:17:02;1.17;;;0.50;;
43580;SDS011;29175;51.030;4.606;2022-07-03T12:19:28;1.42;;;0.60;;
43580;SDS011;29175;51.030;4.606;2022-07-03T12:21:54;1.80;;;0.70;;
43580;SDS011;29175;51.030;4.606;2022-07-03T12:26:50;1.00;;;0.60;;
43580;SDS011;29175;51.030;4.606;2022-07-03T12:29:18;2.72;;;0.80;;
43580;SDS011;29175;51.030;4.606;2022-07-03T12:31:45;5.07;;;0.90;;
43580;SDS011;29175;51.030;4.606;2022-07-03T12:34:14;2.78;;;0.70;;
43580;SDS011;29175;51.030;4.606;2022-07-03T12:37:02;2.78;;;0.52;;
43580;SDS011;29175;51.030;4.606;2022-07-03T12:42:19;1.58;;;0.70;;
43580;SDS011;29175;51.030;4.606;2022-07-03T12:45:01;1.58;;;0.73;;
43580;SDS011;29175;51.030;4.606;2022-07-03T12:52:29;1.38;;;0.80;;
43580;SDS011;29175;51.030;4.606;2022-07-03T12:54:57;3.85;;;1.10;;
43580;SDS011;29175;51.030;4.606;2022-07-03T12:57:26;4.88;;;0.90;;
43580;SDS011;29175;51.030;4.606;2022-07-03T13:00:11;2.67;;;0.70;;
43580;SDS011;29175;51.030;4.606;2022-07-03T13:02:43;1.85;;;0.90;;
43580;SDS011;29175;51.030;4.606;2022-07-03T13:05:23;1.95;;;0.93;;
43580;SDS011;29175;51.030;4.606;2022-07-03T13:07:50;2.47;;;0.97;;
43580;SDS011;29175;51.030;4.606;2022-07-03T13:10:22;2.22;;;0.73;;
43580;SDS011;29175;51.030;4.606;2022-07-03T13:12:56;2.38;;;0.82;;
43580;SDS011;29175;51.030;4.606;2022-07-03T13:15:26;2.75;;;0.73;;
43580;SDS011;29175;51.030;4.606;2022-07-03T13:20:21;4.80;;;0.80;;
43580;SDS011;29175;51.030;4.606;2022-07-03T13:23:03;3.90;;;1.10;;
43580;SDS011;29175;51.030;4.606;2022-07-03T13:30:38;4.82;;;1.10;;
43580;SDS011;29175;51.030;4.606;2022-07-03T13:33:05;2.75;;;1.00;;
43580;SDS011;29175;51.030;4.606;2022-07-03T13:35:31;3.38;;;0.98;;
43580;SDS011;29175;51.030;4.606;2022-07-03T13:37:58;2.00;;;1.00;;
43580;SDS011;29175;51.030;4.606;2022-07-03T13:40:30;2.47;;;0.80;;
43580;SDS011;29175;51.030;4.606;2022-07-03T13:42:56;6.70;;;1.00;;
43580;SDS011;29175;51.030;4.606;2022-07-03T13:45:22;6.85;;;1.20;;
43580;SDS011;29175;51.030;4.606;2022-07-03T13:50:17;1.90;;;1.00;;
43580;SDS011;29175;51.030;4.606;2022-07-03T13:52:44;7.45;;;0.82;;
43580;SDS011;29175;51.030;4.606;2022-07-03T13:55:13;1.52;;;0.80;;
43580;SDS011;29175;51.030;4.606;2022-07-03T13:57:41;5.38;;;0.75;;
43580;SDS011;29175;51.030;4.606;2022-07-03T14:00:08;3.67;;;0.90;;
43580;SDS011;29175;51.030;4.606;2022-07-03T14:02:35;1.95;;;0.68;;
43580;SDS011;29175;51.030;4.606;2022-07-03T14:05:01;2.03;;;0.70;;
43580;SDS011;29175;51.030;4.606;2022-07-03T14:07:26;6.65;;;0.90;;
43580;SDS011;29175;51.030;4.606;2022-07-03T14:09:53;2.42;;;0.73;;
43580;SDS011;29175;51.030;4.606;2022-07-03T14:12:21;3.28;;;0.70;;
43580;SDS011;29175;51.030;4.606;2022-07-03T14:14:47;3.13;;;1.08;;
43580;SDS011;29175;51.030;4.606;2022-07-03T14:17:15;5.43;;;0.77;;
43580;SDS011;29175;51.030;4.606;2022-07-03T14:19:42;1.92;;;0.50;;
43580;SDS011;29175;51.030;4.606;2022-07-03T14:22:10;1.20;;;0.80;;
43580;SDS011;29175;51.030;4.606;2022-07-03T14:24:37;2.33;;;1.00;;
43580;SDS011;29175;51.030;4.606;2022-07-03T14:27:03;2.75;;;0.70;;
43580;SDS011;29175;51.030;4.606;2022-07-03T14:32:38;3.47;;;1.10;;
43580;SDS011;29175;51.030;4.606;2022-07-03T14:35:04;2.70;;;1.15;;
43580;SDS011;29175;51.030;4.606;2022-07-03T14:37:33;2.42;;;0.80;;
43580;SDS011;29175;51.030;4.606;2022-07-03T14:40:01;3.78;;;0.90;;
43580;SDS011;29175;51.030;4.606;2022-07-03T14:42:28;1.65;;;0.70;;
43580;SDS011;29175;51.030;4.606;2022-07-03T14:44:57;3.85;;;1.08;;
43580;SDS011;29175;51.030;4.606;2022-07-03T14:47:23;3.03;;;0.77;;
43580;SDS011;29175;51.030;4.606;2022-07-03T14:49:49;2.83;;;0.93;;
43580;SDS011;29175;51.030;4.606;2022-07-03T14:52:16;2.22;;;0.50;;
43580;SDS011;29175;51.030;4.606;2022-07-03T14:54:46;4.13;;;0.70;;
43580;SDS011;29175;51.030;4.606;2022-07-03T14:57:26;3.08;;;1.23;;
43580;SDS011;29175;51.030;4.606;2022-07-03T15:05:17;2.08;;;0.80;;
43580;SDS011;29175;51.030;4.606;2022-07-03T15:10:31;5.70;;;0.90;;
43580;SDS011;29175;51.030;4.606;2022-07-03T15:12:59;4.00;;;0.95;;
43580;SDS011;29175;51.030;4.606;2022-07-03T15:15:29;1.95;;;0.75;;
43580;SDS011;29175;51.030;4.606;2022-07-03T15:17:57;3.08;;;0.73;;
43580;SDS011;29175;51.030;4.606;2022-07-03T15:20:30;4.40;;;1.08;;
43580;SDS011;29175;51.030;4.606;2022-07-03T15:23:03;3.20;;;1.00;;
43580;SDS011;29175;51.030;4.606;2022-07-03T15:25:33;5.05;;;0.93;;
43580;SDS011;29175;51.030;4.606;2022-07-03T15:28:02;2.80;;;0.98;;
43580;SDS011;29175;51.030;4.606;2022-07-03T15:30:29;5.90;;;0.80;;
43580;SDS011;29175;51.030;4.606;2022-07-03T15:32:55;2.70;;;1.10;;
43580;SDS011;29175;51.030;4.606;2022-07-03T15:35:23;2.05;;;0.90;;
43580;SDS011;29175;51.030;4.606;2022-07-03T15:40:53;4.13;;;1.00;;
43580;SDS011;29175;51.030;4.606;2022-07-03T15:51:37;6.47;;;0.93;;
43580;SDS011;29175;51.030;4.606;2022-07-03T15:54:07;3.90;;;1.00;;
43580;SDS011;29175;51.030;4.606;2022-07-03T15:56:42;3.00;;;1.05;;
43580;SDS011;29175;51.030;4.606;2022-07-03T15:59:12;3.35;;;1.00;;
43580;SDS011;29175;51.030;4.606;2022-07-03T16:01:56;4.32;;;1.05;;
43580;SDS011;29175;51.030;4.606;2022-07-03T16:07:30;6.35;;;0.90;;
43580;SDS011;29175;51.030;4.606;2022-07-03T16:10:04;5.28;;;1.10;;
43580;SDS011;29175;51.030;4.606;2022-07-03T16:12:33;2.83;;;1.00;;
43580;SDS011;29175;51.030;4.606;2022-07-03T16:15:00;1.73;;;0.85;;
43580;SDS011;29175;51.030;4.606;2022-07-03T16:17:27;1.83;;;0.93;;
43580;SDS011;29175;51.030;4.606;2022-07-03T16:19:55;2.00;;;0.77;;
43580;SDS011;29175;51.030;4.606;2022-07-03T16:22:23;2.38;;;0.85;;
43580;SDS011;29175;51.030;4.606;2022-07-03T16:24:54;2.92;;;1.27;;
43580;SDS011;29175;51.030;4.606;2022-07-03T16:27:25;2.45;;;0.90;;
43580;SDS011;29175;51.030;4.606;2022-07-03T16:29:54;2.47;;;1.03;;
43580;SDS011;29175;51.030;4.606;2022-07-03T16:32:26;4.40;;;1.25;;
43580;SDS011;29175;51.030;4.606;2022-07-03T16:35:04;3.10;;;1.13;;
43580;SDS011;29175;51.030;4.606;2022-07-03T16:37:55;3.83;;;1.13;;
43580;SDS011;29175;51.030;4.606;2022-07-03T16:40:27;3.95;;;1.05;;
43580;SDS011;29175;51.030;4.606;2022-07-03T16:42:53;5.00;;;1.30;;
43580;SDS011;29175;51.030;4.606;2022-07-03T16:45:26;6.20;;;1.35;;
43580;SDS011;29175;51.030;4.606;2022-07-03T16:47:56;5.88;;;1.20;;
43580;SDS011;29175;51.030;4.606;2022-07-03T16:50:35;6.18;;;1.23;;
43580;SDS011;29175;51.030;4.606;2022-07-03T16:53:00;4.53;;;1.10;;
43580;SDS011;29175;51.030;4.606;2022-07-03T16:55:26;3.22;;;1.13;;
43580;SDS011;29175;51.030;4.606;2022-07-03T16:57:54;3.00;;;0.90;;
43580;SDS011;29175;51.030;4.606;2022-07-03T17:00:21;3.28;;;1.20;;
43580;SDS011;29175;51.030;4.606;2022-07-03T17:02:50;2.13;;;1.10;;
43580;SDS011;29175;51.030;4.606;2022-07-03T17:05:19;4.75;;;0.95;;
43580;SDS011;29175;51.030;4.606;2022-07-03T17:07:48;3.22;;;1.10;;
43580;SDS011;29175;51.030;4.606;2022-07-03T17:12:47;2.90;;;0.90;;
43580;SDS011;29175;51.030;4.606;2022-07-03T17:15:16;3.28;;;0.90;;
43580;SDS011;29175;51.030;4.606;2022-07-03T17:17:45;3.05;;;1.02;;
43580;SDS011;29175;51.030;4.606;2022-07-03T17:20:24;3.00;;;0.90;;
43580;SDS011;29175;51.030;4.606;2022-07-03T17:22:53;6.20;;;1.10;;
43580;SDS011;29175;51.030;4.606;2022-07-03T17:25:24;3.67;;;1.00;;
43580;SDS011;29175;51.030;4.606;2022-07-03T17:27:56;2.15;;;1.00;;